createdAt,value
2019-04-28T00:02:45.329Z,1.37
2019-04-28T00:05:34.767Z,1.10
2019-04-28T00:08:24.213Z,0.70
2019-04-28T00:11:13.341Z,0.70
2019-04-28T00:14:02.959Z,0.90
2019-04-28T00:16:52.410Z,0.93
2019-04-28T00:19:42.324Z,0.75
2019-04-28T00:22:49.340Z,0.85
2019-04-28T00:25:43.535Z,1.00
2019-04-28T00:28:33.570Z,0.85
2019-04-28T00:31:23.479Z,0.90
2019-04-28T00:34:12.387Z,0.75
2019-04-28T00:37:18.232Z,0.85
2019-04-28T00:40:10.990Z,0.65
2019-04-28T00:43:00.892Z,0.85
2019-04-28T00:45:52.099Z,1.10
2019-04-28T00:48:41.235Z,1.17
2019-04-28T00:51:31.328Z,0.80
2019-04-28T00:54:21.853Z,0.75
2019-04-28T00:57:11.572Z,0.78
2019-04-28T01:00:02.406Z,0.80
2019-04-28T01:02:52.459Z,1.00
2019-04-28T01:05:42.023Z,0.85
2019-04-28T01:08:31.182Z,1.10
2019-04-28T01:11:23.621Z,1.02
2019-04-28T01:14:13.045Z,0.93
2019-04-28T01:17:09.813Z,1.10
2019-04-28T01:20:01.022Z,1.17
2019-04-28T01:22:49.998Z,1.10
2019-04-28T01:25:40.105Z,1.00
2019-04-28T01:28:30.063Z,0.75
2019-04-28T01:31:29.503Z,1.00
2019-04-28T01:34:21.203Z,0.98
2019-04-28T01:37:10.616Z,0.90
2019-04-28T01:39:59.757Z,0.93
2019-04-28T01:42:49.990Z,1.02
2019-04-28T01:45:39.771Z,0.78
2019-04-28T01:48:31.504Z,0.95
2019-04-28T01:51:20.952Z,0.90
2019-04-28T01:54:11.730Z,1.00
2019-04-28T01:57:01.495Z,1.17
2019-04-28T01:59:51.487Z,1.02
2019-04-28T02:02:40.844Z,1.20
2019-04-28T02:05:30.682Z,1.10
2019-04-28T02:08:21.555Z,1.00
2019-04-28T02:11:11.144Z,0.80
2019-04-28T02:14:00.886Z,1.17
2019-04-28T02:16:50.466Z,1.10
2019-04-28T02:19:41.042Z,1.47
2019-04-28T02:22:55.469Z,1.27
2019-04-28T02:25:44.704Z,1.25
2019-04-28T02:28:33.667Z,1.10
2019-04-28T02:31:24.382Z,1.40
2019-04-28T02:34:13.946Z,1.10
2019-04-28T02:37:03.434Z,1.20
2019-04-28T02:39:53.188Z,1.17
2019-04-28T02:42:42.723Z,1.07
2019-04-28T02:45:32.259Z,1.05
2019-04-28T02:48:25.297Z,1.62
2019-04-28T02:51:22.108Z,1.00
2019-04-28T02:54:10.955Z,1.05
2019-04-28T02:57:01.386Z,1.00
2019-04-28T02:59:51.407Z,0.85
2019-04-28T03:02:41.613Z,1.12
2019-04-28T03:05:33.474Z,0.98
2019-04-28T03:08:22.255Z,0.90
2019-04-28T03:11:11.405Z,1.30
2019-04-28T03:14:01.057Z,1.10
2019-04-28T03:16:51.062Z,0.98
2019-04-28T03:19:41.562Z,0.98
2019-04-28T03:22:33.627Z,1.02
2019-04-28T03:25:41.036Z,1.00
2019-04-28T03:28:51.176Z,1.00
2019-04-28T03:32:10.104Z,0.93
2019-04-28T03:34:44.412Z,1.05
2019-04-28T03:37:34.306Z,1.25
2019-04-28T03:40:23.962Z,1.20
2019-04-28T03:43:14.176Z,1.00
2019-04-28T03:46:10.580Z,1.30
2019-04-28T03:49:00.802Z,1.00
2019-04-28T03:51:50.654Z,1.12
2019-04-28T03:54:41.030Z,1.30
2019-04-28T03:57:31.553Z,1.07
2019-04-28T04:00:22.026Z,1.25
2019-04-28T04:03:12.266Z,1.42
2019-04-28T04:06:01.591Z,1.07
2019-04-28T04:08:50.657Z,1.25
2019-04-28T04:11:45.929Z,1.60
2019-04-28T04:14:44.186Z,1.37
2019-04-28T04:17:41.289Z,1.20
2019-04-28T04:20:31.252Z,1.25
2019-04-28T04:23:23.113Z,0.93
2019-04-28T04:26:11.804Z,1.12
2019-04-28T04:29:01.537Z,1.10
2019-04-28T04:31:51.272Z,1.20
2019-04-28T04:34:41.297Z,1.45
2019-04-28T04:37:30.937Z,1.40
2019-04-28T04:40:21.040Z,1.57
2019-04-28T04:43:11.457Z,1.30
2019-04-28T04:46:22.820Z,1.60
2019-04-28T04:49:12.626Z,1.55
2019-04-28T04:52:02.165Z,1.60
2019-04-28T04:54:52.009Z,1.35
2019-04-28T04:57:41.476Z,1.40
2019-04-28T05:00:40.436Z,1.85
2019-04-28T05:03:33.696Z,1.40
2019-04-28T05:06:35.583Z,1.47
2019-04-28T05:09:25.157Z,1.67
2019-04-28T05:12:14.221Z,1.62
2019-04-28T05:15:04.755Z,1.85
2019-04-28T05:17:54.680Z,1.80
2019-04-28T05:20:43.645Z,1.50
2019-04-28T05:23:46.436Z,1.60
2019-04-28T05:26:35.987Z,1.95
2019-04-28T05:29:26.735Z,1.90
2019-04-28T05:32:16.104Z,1.60
2019-04-28T05:35:05.911Z,2.00
2019-04-28T05:37:55.591Z,2.10
2019-04-28T05:40:44.497Z,1.75
2019-04-28T05:43:34.329Z,2.15
2019-04-28T05:46:24.141Z,1.98
2019-04-28T05:49:24.097Z,1.87
2019-04-28T05:52:40.310Z,2.45
2019-04-28T05:55:41.862Z,2.40
2019-04-28T05:58:43.405Z,2.05
2019-04-28T06:01:50.652Z,2.33
2019-04-28T06:04:40.505Z,2.00
2019-04-28T06:07:38.266Z,2.15
2019-04-28T06:10:27.509Z,2.55
2019-04-28T06:13:17.328Z,2.22
2019-04-28T06:16:06.986Z,2.47
2019-04-28T06:18:56.255Z,2.22
2019-04-28T06:21:45.375Z,2.70
2019-04-28T06:24:34.935Z,2.40
2019-04-28T06:27:24.469Z,2.25
2019-04-28T06:30:13.369Z,2.30
2019-04-28T06:33:07.955Z,2.30
2019-04-28T06:35:53.091Z,2.65
2019-04-28T06:38:42.655Z,2.50
2019-04-28T06:41:32.259Z,2.25
2019-04-28T06:44:22.020Z,2.80
2019-04-28T06:47:11.698Z,2.40
2019-04-28T06:50:01.408Z,2.45
2019-04-28T06:52:50.341Z,2.60
2019-04-28T06:55:39.824Z,2.80
2019-04-28T06:58:29.871Z,2.90
2019-04-28T07:01:19.083Z,2.80
2019-04-28T07:04:10.862Z,2.83
2019-04-28T07:07:00.668Z,3.35
2019-04-28T07:09:49.734Z,2.80
2019-04-28T07:12:58.104Z,2.60
2019-04-28T07:15:48.016Z,2.52
2019-04-28T07:18:37.907Z,3.05
2019-04-28T07:21:59.036Z,2.50
2019-04-28T07:24:48.580Z,2.70
2019-04-28T07:27:37.960Z,2.40
2019-04-28T07:30:28.345Z,2.80
2019-04-28T07:33:17.437Z,2.90
2019-04-28T07:36:07.828Z,2.65
2019-04-28T07:38:57.551Z,2.58
2019-04-28T07:41:46.696Z,2.92
2019-04-28T07:44:35.442Z,2.42
2019-04-28T07:47:25.060Z,2.65
2019-04-28T07:50:14.380Z,3.12
2019-04-28T07:53:12.856Z,3.08
2019-04-28T07:56:01.856Z,3.02
2019-04-28T07:58:51.552Z,3.30
2019-04-28T08:01:41.212Z,3.27
2019-04-28T08:04:31.021Z,3.37
2019-04-28T08:07:20.387Z,3.87
2019-04-28T08:10:10.498Z,3.35
2019-04-28T08:12:59.216Z,4.15
2019-04-28T08:15:48.939Z,4.30
2019-04-28T08:18:37.746Z,3.83
2019-04-28T08:21:27.422Z,3.52
2019-04-28T08:24:17.238Z,3.80
2019-04-28T08:27:06.506Z,3.90
2019-04-28T08:29:58.705Z,3.42
2019-04-28T08:32:54.921Z,3.42
2019-04-28T08:35:44.412Z,3.12
2019-04-28T08:38:38.956Z,3.72
2019-04-28T08:41:28.195Z,3.50
2019-04-28T08:44:17.674Z,2.98
2019-04-28T08:47:06.303Z,2.72
2019-04-28T08:49:56.015Z,2.83
2019-04-28T08:52:45.003Z,2.90
2019-04-28T08:55:35.030Z,2.72
2019-04-28T08:58:26.812Z,2.65
2019-04-28T09:01:16.347Z,2.72
2019-04-28T09:04:15.130Z,2.60
2019-04-28T09:06:56.994Z,2.67
2019-04-28T09:09:46.831Z,2.60
2019-04-28T09:12:39.751Z,2.85
2019-04-28T09:15:29.647Z,2.40
2019-04-28T09:18:19.562Z,2.25
2019-04-28T09:21:09.216Z,2.22
2019-04-28T09:23:59.000Z,2.72
2019-04-28T09:26:49.944Z,2.25
2019-04-28T09:29:38.918Z,2.33
2019-04-28T09:32:28.814Z,2.87
2019-04-28T09:35:18.572Z,2.33
2019-04-28T09:38:07.593Z,2.22
2019-04-28T09:40:57.586Z,2.62
2019-04-28T09:44:01.375Z,2.55
2019-04-28T09:46:51.496Z,2.30
2019-04-28T09:49:41.124Z,2.17
2019-04-28T09:52:30.847Z,2.20
2019-04-28T09:55:20.749Z,2.40
2019-04-28T09:58:09.649Z,2.27
2019-04-28T10:00:59.204Z,2.85
2019-04-28T10:03:50.018Z,2.65
2019-04-28T10:06:39.479Z,2.60
2019-04-28T10:09:28.780Z,2.40
2019-04-28T10:12:26.817Z,2.58
2019-04-28T10:15:09.997Z,2.90
2019-04-28T10:17:59.915Z,3.12
2019-04-28T10:20:48.884Z,2.47
2019-04-28T10:23:41.053Z,2.50
2019-04-28T10:26:30.643Z,2.50
2019-04-28T10:29:19.497Z,2.40
2019-04-28T10:32:08.322Z,2.25
2019-04-28T10:34:58.128Z,2.15
2019-04-28T10:37:48.105Z,2.55
2019-04-28T10:40:43.946Z,2.58
2019-04-28T10:43:33.270Z,2.05
2019-04-28T10:46:22.853Z,2.10
2019-04-28T10:49:12.095Z,1.87
2019-04-28T10:52:01.161Z,1.95
2019-04-28T10:54:50.132Z,2.58
2019-04-28T10:57:40.068Z,2.30
2019-04-28T11:00:31.008Z,2.10
2019-04-28T11:03:19.826Z,2.17
2019-04-28T11:06:09.103Z,2.37
2019-04-28T11:09:04.054Z,2.30
2019-04-28T11:11:53.798Z,1.87
2019-04-28T11:14:43.821Z,2.27
2019-04-28T11:17:34.783Z,2.62
2019-04-28T11:20:25.525Z,2.30
2019-04-28T11:23:15.451Z,2.10
2019-04-28T11:26:05.121Z,2.17
2019-04-28T11:28:55.109Z,1.90
2019-04-28T11:31:44.698Z,1.95
2019-04-28T11:34:47.097Z,1.90
2019-04-28T11:37:36.000Z,2.40
2019-04-28T11:40:25.004Z,1.72
2019-04-28T11:43:15.663Z,2.12
2019-04-28T11:46:09.501Z,2.22
2019-04-28T11:49:00.288Z,2.00
2019-04-28T11:51:50.993Z,1.85
2019-04-28T11:54:40.782Z,2.02
2019-04-28T11:57:30.733Z,2.67
2019-04-28T12:00:30.737Z,2.67
2019-04-28T12:03:21.381Z,2.52
2019-04-28T12:06:12.324Z,2.67
2019-04-28T12:09:18.714Z,2.50
2019-04-28T12:12:21.040Z,2.70
2019-04-28T12:15:21.220Z,2.45
2019-04-28T12:18:36.525Z,2.30
2019-04-28T12:21:26.288Z,2.50
2019-04-28T12:24:17.078Z,2.40
2019-04-28T12:27:06.708Z,3.02
2019-04-28T12:29:56.388Z,2.90
2019-04-28T12:32:45.830Z,3.08
2019-04-28T12:35:46.691Z,2.58
2019-04-28T12:38:26.196Z,2.90
2019-04-28T12:41:15.757Z,2.83
2019-04-28T12:44:05.269Z,2.65
2019-04-28T12:46:54.040Z,2.95
2019-04-28T12:49:55.060Z,2.67
2019-04-28T12:52:44.187Z,2.85
2019-04-28T12:55:33.587Z,3.17
2019-04-28T12:58:23.154Z,3.00
2019-04-28T13:01:23.277Z,3.08
2019-04-28T13:04:21.480Z,3.08
2019-04-28T13:07:11.156Z,3.85
2019-04-28T13:10:00.635Z,3.90
2019-04-28T13:12:49.407Z,3.52
2019-04-28T13:15:38.654Z,3.77
2019-04-28T13:18:27.580Z,3.80
2019-04-28T13:21:17.079Z,3.87
2019-04-28T13:24:07.645Z,3.75
2019-04-28T13:26:57.039Z,3.90
2019-04-28T13:29:47.107Z,3.60
2019-04-28T13:32:37.010Z,3.80
2019-04-28T13:35:26.619Z,4.17
2019-04-28T13:38:16.008Z,3.85
2019-04-28T13:41:07.742Z,3.95
2019-04-28T13:43:57.865Z,4.03
2019-04-28T13:46:49.140Z,3.98
2019-04-28T13:49:51.493Z,4.22
2019-04-28T13:52:41.278Z,4.15
2019-04-28T13:56:04.390Z,3.75
2019-04-28T13:59:16.295Z,4.00
2019-04-28T14:02:13.237Z,4.47
2019-04-28T14:05:21.588Z,4.40
2019-04-28T14:08:11.525Z,3.65
2019-04-28T14:11:01.221Z,4.28
2019-04-28T14:13:50.806Z,3.72
2019-04-28T14:16:41.042Z,4.20
2019-04-28T14:19:33.160Z,3.92
2019-04-28T14:22:27.649Z,4.12
2019-04-28T14:25:20.261Z,3.65
2019-04-28T14:28:10.640Z,3.95
2019-04-28T14:31:02.859Z,3.70
2019-04-28T14:33:53.667Z,3.70
2019-04-28T14:36:44.404Z,3.50
2019-04-28T14:39:39.388Z,3.10
2019-04-28T14:42:33.707Z,3.37
2019-04-28T14:45:24.439Z,3.17
2019-04-28T14:48:16.042Z,3.33
2019-04-28T14:51:10.027Z,2.85
2019-04-28T14:53:59.767Z,3.02
2019-04-28T14:56:51.716Z,3.30
2019-04-28T14:59:47.209Z,3.25
2019-04-28T15:02:57.287Z,3.15
2019-04-28T15:06:13.472Z,2.75
2019-04-28T15:09:19.918Z,2.80
2019-04-28T15:12:15.914Z,3.58
2019-04-28T15:15:10.107Z,3.70
2019-04-28T15:18:03.486Z,3.35
2019-04-28T15:20:54.068Z,3.60
2019-04-28T15:23:46.855Z,3.22
2019-04-28T15:26:42.086Z,3.85
2019-04-28T15:29:34.985Z,3.05
2019-04-28T15:32:24.326Z,3.90
2019-04-28T15:35:15.631Z,3.87
2019-04-28T15:38:05.299Z,3.62
2019-04-28T15:40:56.106Z,3.62
2019-04-28T15:43:46.194Z,3.80
2019-04-28T15:46:37.410Z,3.80
2019-04-28T15:49:27.243Z,4.90
2019-04-28T15:52:16.947Z,3.98
2019-04-28T15:55:07.800Z,3.90
2019-04-28T15:57:57.456Z,4.25
2019-04-28T16:00:48.556Z,3.85
2019-04-28T16:03:39.465Z,4.33
2019-04-28T16:06:28.795Z,3.62
2019-04-28T16:09:19.050Z,3.00
2019-04-28T16:12:11.021Z,2.90
2019-04-28T16:15:00.783Z,3.30
2019-04-28T16:17:49.737Z,3.37
2019-04-28T16:20:39.354Z,2.90
2019-04-28T16:23:28.374Z,2.75
2019-04-28T16:26:17.821Z,3.42
2019-04-28T16:29:07.782Z,2.90
2019-04-28T16:31:57.014Z,3.47
2019-04-28T16:34:46.456Z,2.80
2019-04-28T16:37:38.914Z,2.62
2019-04-28T16:40:56.751Z,3.37
2019-04-28T16:43:51.783Z,3.65
2019-04-28T16:46:41.508Z,5.12
2019-04-28T16:49:30.493Z,3.30
2019-04-28T16:52:19.487Z,3.00
2019-04-28T16:55:22.366Z,3.50
2019-04-28T16:58:29.103Z,3.30
2019-04-28T17:01:29.453Z,3.10
2019-04-28T17:04:19.048Z,3.35
2019-04-28T17:07:08.625Z,2.87
2019-04-28T17:10:00.632Z,2.90
2019-04-28T17:12:50.313Z,2.35
2019-04-28T17:15:39.726Z,2.77
2019-04-28T17:18:29.551Z,3.17
2019-04-28T17:21:19.128Z,2.72
2019-04-28T17:24:09.009Z,2.90
2019-04-28T17:26:58.939Z,2.70
2019-04-28T17:29:51.047Z,2.87
2019-04-28T17:32:39.607Z,2.30
2019-04-28T17:35:28.675Z,2.60
2019-04-28T17:38:18.213Z,2.58
2019-04-28T17:41:08.131Z,2.55
2019-04-28T17:43:57.429Z,2.80
2019-04-28T17:46:48.657Z,2.70
2019-04-28T17:49:38.909Z,2.55
2019-04-28T17:52:28.717Z,3.17
2019-04-28T17:55:18.327Z,2.80
2019-04-28T17:58:09.523Z,2.90
2019-04-28T18:01:15.967Z,2.85
2019-04-28T18:04:24.402Z,2.85
2019-04-28T18:07:22.048Z,2.60
2019-04-28T18:10:12.682Z,2.60
2019-04-28T18:13:02.499Z,2.58
2019-04-28T18:16:14.226Z,2.70
2019-04-28T18:19:07.406Z,3.05
2019-04-28T18:21:57.389Z,2.72
2019-04-28T18:24:49.904Z,2.22
2019-04-28T18:27:39.602Z,2.70
2019-04-28T18:30:30.321Z,2.60
2019-04-28T18:33:43.509Z,2.90
2019-04-28T18:36:40.295Z,2.90
2019-04-28T18:39:47.667Z,3.00
2019-04-28T18:42:44.868Z,2.92
2019-04-28T18:45:33.988Z,3.37
2019-04-28T18:48:24.084Z,3.22
2019-04-28T18:51:13.247Z,3.05
2019-04-28T18:54:02.718Z,3.45
2019-04-28T18:56:53.878Z,3.62
2019-04-28T18:59:44.648Z,3.05
2019-04-28T19:02:42.232Z,3.40
2019-04-28T19:05:34.897Z,3.17
2019-04-28T19:08:55.707Z,3.00
2019-04-28T19:11:48.836Z,3.00
2019-04-28T19:14:43.049Z,2.83
2019-04-28T19:17:47.756Z,2.95
2019-04-28T19:20:37.355Z,3.15
2019-04-28T19:23:26.698Z,3.10
2019-04-28T19:26:16.466Z,2.75
2019-04-28T19:29:05.453Z,2.35
2019-04-28T19:31:54.523Z,2.67
2019-04-28T19:34:43.368Z,2.90
2019-04-28T19:37:32.670Z,2.70
2019-04-28T19:40:22.348Z,2.70
2019-04-28T19:43:11.715Z,2.50
2019-04-28T19:46:02.498Z,2.42
2019-04-28T19:48:55.009Z,2.90
2019-04-28T19:51:44.937Z,2.60
2019-04-28T19:54:37.825Z,2.72
2019-04-28T19:57:35.004Z,2.22
2019-04-28T20:00:32.746Z,2.50
2019-04-28T20:03:22.040Z,2.45
2019-04-28T20:06:11.804Z,2.40
2019-04-28T20:09:02.079Z,2.40
2019-04-28T20:11:51.305Z,2.50
2019-04-28T20:14:41.177Z,2.37
2019-04-28T20:17:31.332Z,2.20
2019-04-28T20:20:21.011Z,2.40
2019-04-28T20:23:10.117Z,2.27
2019-04-28T20:25:59.137Z,2.45
2019-04-28T20:28:49.899Z,2.10
2019-04-28T20:31:39.205Z,2.40
2019-04-28T20:34:28.527Z,2.60
2019-04-28T20:37:33.328Z,2.40
2019-04-28T20:40:29.675Z,2.02
2019-04-28T20:43:20.247Z,2.40
2019-04-28T20:46:09.765Z,2.47
2019-04-28T20:48:59.817Z,2.83
2019-04-28T20:51:53.632Z,2.62
2019-04-28T20:54:47.717Z,2.33
2019-04-28T20:57:37.543Z,2.70
2019-04-28T21:00:29.751Z,2.40
2019-04-28T21:03:20.181Z,2.33
2019-04-28T21:06:13.893Z,2.72
2019-04-28T21:09:31.218Z,2.42
2019-04-28T21:12:23.919Z,3.35
2019-04-28T21:15:16.593Z,2.55
2019-04-28T21:18:06.492Z,3.00
2019-04-28T21:20:56.444Z,2.70
2019-04-28T21:23:48.659Z,2.58
2019-04-28T21:26:38.366Z,2.70
2019-04-28T21:29:28.204Z,2.92
2019-04-28T21:32:20.014Z,3.15
2019-04-28T21:35:14.934Z,2.77
2019-04-28T21:38:04.625Z,2.90
2019-04-28T21:40:54.210Z,2.72
2019-04-28T21:44:04.886Z,3.30
2019-04-28T21:47:01.877Z,2.90
2019-04-28T21:49:52.077Z,2.70
2019-04-28T21:52:41.789Z,2.92
2019-04-28T21:55:35.362Z,3.22
2019-04-28T21:58:32.913Z,3.15
2019-04-28T22:01:20.583Z,3.22
2019-04-28T22:04:12.612Z,3.47
2019-04-28T22:07:02.550Z,2.98
2019-04-28T22:09:53.893Z,3.17
2019-04-28T22:12:44.475Z,3.25
2019-04-28T22:15:33.802Z,2.83
2019-04-28T22:18:23.104Z,2.98
2019-04-28T22:21:12.132Z,2.90
2019-04-28T22:24:12.575Z,2.90
2019-04-28T22:27:01.766Z,3.02
2019-04-28T22:29:50.770Z,3.35
2019-04-28T22:32:40.751Z,2.90
2019-04-28T22:35:31.342Z,3.00
2019-04-28T22:38:20.261Z,3.22
2019-04-28T22:41:09.333Z,3.52
2019-04-28T22:44:00.249Z,2.83
2019-04-28T22:46:49.588Z,2.75
2019-04-28T22:49:39.410Z,3.27
2019-04-28T22:52:28.747Z,2.70
2019-04-28T22:55:22.422Z,2.95
2019-04-28T22:58:29.424Z,2.85
2019-04-28T23:04:50.991Z,2.83
2019-04-28T23:07:40.352Z,2.75
2019-04-28T23:10:29.745Z,3.10
2019-04-28T23:13:19.478Z,2.58
2019-04-28T23:16:09.549Z,2.70
2019-04-28T23:18:59.093Z,2.58
2019-04-28T23:22:05.854Z,2.75
2019-04-28T23:24:55.250Z,2.75
2019-04-28T23:27:45.068Z,2.75
2019-04-28T23:30:43.431Z,2.70
2019-04-28T23:33:33.100Z,2.77
2019-04-28T23:36:22.451Z,2.70
2019-04-28T23:39:13.277Z,2.72
2019-04-28T23:42:27.437Z,2.87
2019-04-28T23:45:18.122Z,2.75
2019-04-28T23:48:07.192Z,2.77
2019-04-28T23:51:15.033Z,2.80
2019-04-28T23:54:06.507Z,2.58
2019-04-28T23:56:55.988Z,2.80
2019-04-28T23:59:45.823Z,2.52
